Time;durP1;ratioP1;P1;durP2;ratioP2;P2;SDS_P1;SDS_P2;PMS_P1;PMS_P2;Temp;Humidity;BMP_temperature;BMP_pressure;BME280_temperature;BME280_humidity;BME280_pressure;Samples;Min_cycle;Max_cycle;Signal;HPM_P1;HPM_P2
2022/05/02 00:02:08;;;;;;;6.85;3.28;;;6.00;99.90;;;;;;5029665;28;20559;-64
2022/05/02 00:04:34;;;;;;;6.60;3.60;;;6.00;99.90;;;;;;5031011;28;20128;-59
2022/05/02 00:06:59;;;;;;;6.88;3.20;;;5.90;99.90;;;;;;5029795;28;20111;-60
2022/05/02 00:09:25;;;;;;;6.50;3.45;;;5.90;99.90;;;;;;5030655;28;20067;-59
2022/05/02 00:11:51;;;;;;;6.07;3.38;;;5.90;99.90;;;;;;5031836;28;20071;-56
2022/05/02 00:14:16;;;;;;;8.82;3.38;;;5.90;99.90;;;;;;5026704;28;20065;-65
2022/05/02 00:16:43;;;;;;;4.60;3.45;;;5.90;99.90;;;;;;4994770;28;20053;-58
2022/05/02 00:19:08;;;;;;;4.88;3.20;;;5.90;99.90;;;;;;5009761;28;20626;-54
2022/05/02 00:21:34;;;;;;;4.15;3.20;;;5.80;99.90;;;;;;5010428;28;20083;-56
2022/05/02 00:24:00;;;;;;;4.03;3.17;;;5.80;99.90;;;;;;5010018;28;20499;-62
2022/05/02 00:26:25;;;;;;;7.97;3.25;;;5.70;99.90;;;;;;4990134;28;20048;-64
2022/05/02 00:28:51;;;;;;;6.50;3.25;;;5.70;99.90;;;;;;5030037;28;20049;-58
2022/05/02 00:31:16;;;;;;;3.97;3.25;;;5.70;99.90;;;;;;5023832;28;20598;-60
2022/05/02 00:33:42;;;;;;;4.18;2.95;;;5.70;99.90;;;;;;4993658;28;20399;-55
2022/05/02 00:36:08;;;;;;;6.72;3.33;;;5.60;99.90;;;;;;5019510;28;20037;-53
2022/05/02 00:38:34;;;;;;;4.80;3.60;;;5.50;99.90;;;;;;5029639;28;20088;-66
2022/05/02 00:41:00;;;;;;;3.92;3.40;;;5.60;99.90;;;;;;5028138;28;20422;-55
2022/05/02 00:43:25;;;;;;;5.72;3.38;;;5.50;99.90;;;;;;5045967;28;20048;-62
2022/05/02 00:45:51;;;;;;;6.25;3.60;;;5.50;99.90;;;;;;5046867;28;20110;-61
2022/05/02 00:48:17;;;;;;;8.27;3.67;;;5.50;99.90;;;;;;5027705;28;20080;-62
2022/05/02 00:50:44;;;;;;;4.88;3.75;;;5.60;99.90;;;;;;4994381;28;20369;-51
2022/05/02 00:53:15;;;;;;;9.32;4.00;;;5.60;99.90;;;;;;5024680;28;20106;-59
2022/05/02 00:55:41;;;;;;;7.90;4.22;;;5.80;99.90;;;;;;5028879;28;20071;-61
2022/05/02 00:58:07;;;;;;;8.57;4.18;;;5.80;99.90;;;;;;5046923;28;20053;-55
2022/05/02 01:00:35;;;;;;;6.55;4.68;;;5.90;99.90;;;;;;5012870;28;20095;-67
2022/05/02 01:03:03;;;;;;;5.68;4.43;;;5.90;99.90;;;;;;5011619;28;20081;-64
2022/05/02 01:05:28;;;;;;;5.63;4.05;;;5.80;99.90;;;;;;5008777;28;20088;-61
2022/05/02 01:07:55;;;;;;;5.00;4.55;;;5.80;99.90;;;;;;5010938;28;20049;-64
2022/05/02 01:10:22;;;;;;;10.30;5.68;;;5.70;99.90;;;;;;5025847;28;20128;-59
2022/05/02 01:12:48;;;;;;;8.40;4.93;;;5.60;99.90;;;;;;5011087;28;20072;-55
2022/05/02 01:15:16;;;;;;;5.90;4.85;;;5.50;99.90;;;;;;5008816;28;20846;-57
2022/05/02 01:17:45;;;;;;;8.45;5.35;;;5.60;99.90;;;;;;5009274;28;20053;-60
2022/05/02 01:20:15;;;;;;;7.25;5.00;;;5.60;99.90;;;;;;5009681;28;20057;-58
2022/05/02 01:22:42;;;;;;;11.10;5.28;;;5.60;99.90;;;;;;5027514;28;20484;-55
2022/05/02 01:25:09;;;;;;;8.75;4.85;;;5.60;99.90;;;;;;5047246;28;20495;-58
2022/05/02 01:27:34;;;;;;;8.32;4.85;;;5.60;99.90;;;;;;5027604;28;20050;-59
2022/05/02 01:30:00;;;;;;;6.50;4.75;;;5.50;99.90;;;;;;5028258;28;20114;-61
2022/05/02 01:32:26;;;;;;;9.80;5.20;;;5.50;99.90;;;;;;5013260;28;20045;-58
2022/05/02 01:34:51;;;;;;;9.93;5.28;;;5.40;99.90;;;;;;5009623;28;20056;-56
2022/05/02 01:37:17;;;;;;;5.63;4.60;;;5.40;99.90;;;;;;5008718;28;21011;-51
2022/05/02 01:39:43;;;;;;;6.75;5.30;;;5.30;99.90;;;;;;4992062;28;20060;-57
2022/05/02 01:42:10;;;;;;;8.20;4.70;;;5.30;99.90;;;;;;5018239;28;20045;-60
2022/05/02 01:44:37;;;;;;;6.07;5.38;;;5.30;99.90;;;;;;5011026;28;20449;-55
2022/05/02 01:47:03;;;;;;;10.38;5.35;;;5.30;99.90;;;;;;5028762;28;20076;-64
2022/05/02 01:49:29;;;;;;;10.60;5.28;;;5.30;99.90;;;;;;5028058;28;20040;-55
2022/05/02 01:51:57;;;;;;;10.57;5.60;;;5.20;99.90;;;;;;5043508;28;20944;-53
2022/05/02 01:54:24;;;;;;;6.55;5.03;;;5.20;99.90;;;;;;5008426;28;20083;-53
2022/05/02 01:56:51;;;;;;;5.90;4.40;;;5.10;99.90;;;;;;5000743;28;20053;-66
2022/05/02 01:59:16;;;;;;;6.80;5.00;;;5.10;99.90;;;;;;5028682;28;20056;-53
2022/05/02 02:01:42;;;;;;;9.32;5.32;;;5.10;99.90;;;;;;5027198;28;20049;-62
2022/05/02 02:06:54;;;;;;;8.20;5.18;;;5.10;99.90;;;;;;5007668;28;20080;-58
2022/05/02 02:09:20;;;;;;;5.95;5.30;;;5.10;99.90;;;;;;5003436;28;20049;-60
2022/05/02 02:11:46;;;;;;;5.25;4.72;;;5.00;99.90;;;;;;5012080;28;20045;-50
2022/05/02 02:14:12;;;;;;;6.75;4.97;;;5.10;99.90;;;;;;5025507;28;20103;-62
2022/05/02 02:16:37;;;;;;;8.65;5.28;;;5.10;99.90;;;;;;5028904;28;20060;-56
2022/05/02 02:19:04;;;;;;;6.95;4.43;;;5.00;99.90;;;;;;5027335;28;20086;-67
2022/05/02 02:25:11;;;;;;;7.85;4.65;;;4.90;99.90;;;;;;5036812;23;20116;-51
2022/05/02 02:27:37;;;;;;;9.10;5.78;;;4.70;99.90;;;;;;5001187;28;20484;-57
2022/05/02 02:30:03;;;;;;;8.57;6.28;;;4.80;99.90;;;;;;5010326;28;20140;-56
2022/05/02 02:32:29;;;;;;;9.32;6.88;;;4.80;99.90;;;;;;5009260;28;20392;-54
2022/05/02 02:34:54;;;;;;;11.02;6.70;;;4.70;99.90;;;;;;5009295;28;20065;-55
2022/05/02 02:37:20;;;;;;;11.85;6.30;;;4.70;99.90;;;;;;4992362;28;20061;-58
2022/05/02 02:39:46;;;;;;;6.13;5.53;;;4.70;99.90;;;;;;5009993;28;20049;-57
2022/05/02 02:42:12;;;;;;;10.68;4.75;;;4.60;99.90;;;;;;5030652;28;20423;-52
2022/05/02 02:44:37;;;;;;;6.40;4.85;;;4.60;99.90;;;;;;5012621;28;20133;-60
2022/05/02 02:47:03;;;;;;;8.82;5.15;;;4.60;99.90;;;;;;5013639;28;20046;-57
2022/05/02 02:49:29;;;;;;;10.57;4.78;;;4.60;99.90;;;;;;5012160;28;20053;-54
2022/05/02 02:51:55;;;;;;;7.75;5.32;;;4.50;99.90;;;;;;5014248;28;20068;-53
2022/05/02 02:54:21;;;;;;;7.40;5.45;;;4.50;99.90;;;;;;4979495;28;20136;-59
2022/05/02 02:56:48;;;;;;;8.43;5.35;;;4.50;99.90;;;;;;5030845;28;20515;-60
2022/05/02 02:59:14;;;;;;;8.90;6.10;;;4.50;99.90;;;;;;5030066;28;20088;-49
2022/05/02 03:01:40;;;;;;;6.82;5.82;;;4.50;99.90;;;;;;5013299;28;20538;-58
2022/05/02 03:06:52;;;;;;;9.10;5.60;;;4.40;99.90;;;;;;5011688;28;20053;-52
2022/05/02 03:09:18;;;;;;;6.97;5.40;;;4.40;99.90;;;;;;5013098;28;20695;-60
2022/05/02 03:11:44;;;;;;;9.20;5.43;;;4.40;99.90;;;;;;5012411;28;20060;-59
2022/05/02 03:14:09;;;;;;;8.38;6.50;;;4.30;99.90;;;;;;5012744;28;20566;-59
2022/05/02 03:16:35;;;;;;;8.48;6.15;;;4.30;99.90;;;;;;5012288;28;20056;-49
2022/05/02 03:19:01;;;;;;;7.85;5.35;;;4.30;99.90;;;;;;5012704;28;20063;-53
2022/05/02 03:21:26;;;;;;;6.55;4.90;;;4.20;99.90;;;;;;5012703;28;20483;-49
2022/05/02 03:23:52;;;;;;;5.10;4.60;;;4.20;99.90;;;;;;4995711;28;20091;-52
2022/05/02 03:26:18;;;;;;;5.05;4.57;;;4.20;99.90;;;;;;4995718;28;20057;-66
2022/05/02 03:28:44;;;;;;;8.75;5.20;;;4.10;99.90;;;;;;4995625;28;20100;-67
2022/05/02 03:31:11;;;;;;;5.53;4.72;;;4.10;99.90;;;;;;5012643;28;20549;-61
2022/05/02 03:33:36;;;;;;;5.55;4.85;;;4.10;99.90;;;;;;4995570;28;20061;-50
2022/05/02 03:36:06;;;;;;;7.15;5.38;;;4.00;99.90;;;;;;5013228;28;20129;-56
2022/05/02 03:38:32;;;;;;;5.78;5.22;;;4.00;99.90;;;;;;5011649;28;20049;-48
2022/05/02 03:40:57;;;;;;;7.38;4.80;;;4.00;99.90;;;;;;5011908;28;20053;-52
2022/05/02 03:43:23;;;;;;;6.90;4.75;;;4.00;99.90;;;;;;5012627;28;20132;-59
2022/05/02 03:45:49;;;;;;;11.93;5.57;;;4.00;99.90;;;;;;5011423;28;20046;-49
2022/05/02 03:48:14;;;;;;;8.82;5.70;;;4.00;99.90;;;;;;5012122;28;20107;-54
2022/05/02 03:50:40;;;;;;;10.02;5.32;;;4.00;99.90;;;;;;5011739;28;20060;-49
2022/05/02 03:53:08;;;;;;;8.48;5.40;;;4.10;99.90;;;;;;5011574;28;20559;-62
2022/05/02 03:55:34;;;;;;;9.95;6.38;;;4.10;99.90;;;;;;5011464;28;20926;-51
2022/05/02 03:58:02;;;;;;;8.73;5.28;;;4.10;99.90;;;;;;5011634;28;20096;-49
2022/05/02 04:00:28;;;;;;;9.20;6.20;;;4.00;99.90;;;;;;5012047;28;20053;-50
2022/05/02 04:02:54;;;;;;;8.75;5.97;;;4.10;99.90;;;;;;5011343;28;20080;-62
2022/05/02 04:05:20;;;;;;;7.88;7.03;;;4.20;99.90;;;;;;5012141;28;20045;-57
2022/05/02 04:07:45;;;;;;;7.68;6.13;;;4.20;99.90;;;;;;5011164;28;20452;-57
2022/05/02 04:10:11;;;;;;;11.32;6.50;;;4.30;99.90;;;;;;5011977;28;20128;-51
2022/05/02 04:12:40;;;;;;;6.57;5.93;;;4.40;99.90;;;;;;5010940;28;20049;-48
2022/05/02 04:15:09;;;;;;;13.10;7.78;;;4.40;99.90;;;;;;5011614;28;20081;-64
2022/05/02 04:17:34;;;;;;;12.27;6.32;;;4.40;99.90;;;;;;5011743;28;20127;-60
2022/05/02 04:20:01;;;;;;;8.65;6.80;;;4.50;99.90;;;;;;5010465;28;20543;-61
2022/05/02 04:22:27;;;;;;;9.63;6.57;;;4.50;99.90;;;;;;5011525;28;20060;-61
2022/05/02 04:24:53;;;;;;;13.73;6.95;;;4.60;99.90;;;;;;5027769;28;20400;-54
2022/05/02 04:27:19;;;;;;;11.77;7.18;;;4.70;99.90;;;;;;5009771;28;20053;-53
2022/05/02 04:29:44;;;;;;;12.25;6.43;;;4.70;99.90;;;;;;5009915;28;20054;-51
2022/05/02 04:32:10;;;;;;;7.63;6.85;;;4.70;99.90;;;;;;4990750;28;20061;-54
2022/05/02 04:34:36;;;;;;;13.18;7.90;;;4.80;99.90;;;;;;5006111;28;20072;-60
2022/05/02 04:37:01;;;;;;;10.30;7.30;;;4.90;99.90;;;;;;4989875;28;20087;-49
2022/05/02 04:39:27;;;;;;;10.90;7.82;;;5.00;99.90;;;;;;4974129;28;20046;-52
2022/05/02 04:41:53;;;;;;;17.63;8.68;;;5.10;99.90;;;;;;5007760;28;20049;-57
2022/05/02 04:44:21;;;;;;;11.90;7.80;;;5.20;99.90;;;;;;5027299;28;20041;-61
2022/05/02 04:46:47;;;;;;;13.80;7.32;;;5.40;99.90;;;;;;4977008;28;20049;-63
2022/05/02 04:49:13;;;;;;;13.05;7.70;;;5.50;99.90;;;;;;5027036;28;20844;-49
2022/05/02 04:51:38;;;;;;;17.42;8.30;;;5.60;99.90;;;;;;4992616;28;20042;-54
2022/05/02 04:54:04;;;;;;;12.63;7.70;;;5.60;99.90;;;;;;5009236;28;20087;-57
2022/05/02 04:56:30;;;;;;;11.48;7.93;;;5.80;99.90;;;;;;5009587;28;20054;-61
2022/05/02 04:58:56;;;;;;;17.60;8.25;;;5.90;99.90;;;;;;5009005;28;20053;-53
2022/05/02 05:01:21;;;;;;;20.65;8.80;;;5.90;99.90;;;;;;5009008;28;20069;-64
2022/05/02 05:03:47;;;;;;;10.00;8.15;;;6.00;99.90;;;;;;4992541;28;20049;-51
2022/05/02 05:06:13;;;;;;;11.52;8.52;;;6.10;99.90;;;;;;5009480;28;20045;-52
2022/05/02 05:08:39;;;;;;;13.77;9.95;;;6.10;99.90;;;;;;4992510;28;20045;-64
2022/05/02 05:11:26;;;;;;;21.67;9.85;;;6.30;99.90;;;;;;5009196;28;20053;-51
2022/05/02 05:17:07;;;;;;;15.77;10.32;;;6.50;99.90;;;;;;5008823;28;20047;-62
2022/05/02 05:19:51;;;;;;;16.85;10.57;;;6.60;99.90;;;;;;5009232;28;20403;-53
2022/05/02 05:22:41;;;;;;;20.20;10.85;;;6.70;99.90;;;;;;5023188;28;20052;-58
2022/05/02 05:25:18;;;;;;;16.17;9.20;;;6.80;99.90;;;;;;5007916;28;20117;-60
2022/05/02 05:27:50;;;;;;;11.45;9.73;;;6.90;99.90;;;;;;5008897;28;20827;-58
2022/05/02 05:30:23;;;;;;;10.70;9.60;;;7.00;99.90;;;;;;5008531;28;20483;-56
2022/05/02 05:32:58;;;;;;;13.77;8.65;;;7.10;99.90;;;;;;5008907;28;20052;-59
2022/05/02 05:35:34;;;;;;;15.98;8.90;;;7.10;99.90;;;;;;5008937;28;20056;-53
2022/05/02 05:38:10;;;;;;;10.88;8.35;;;7.20;99.90;;;;;;5026217;28;20046;-48
2022/05/02 05:40:42;;;;;;;14.35;8.23;;;7.20;99.90;;;;;;4992124;28;20049;-53
2022/05/02 05:43:32;;;;;;;11.77;7.63;;;7.30;99.90;;;;;;5006693;28;20042;-53
2022/05/02 05:46:13;;;;;;;10.60;7.80;;;7.40;99.90;;;;;;4989290;28;20085;-57
2022/05/02 05:49:11;;;;;;;11.75;7.40;;;7.50;99.90;;;;;;5006740;28;20053;-64
2022/05/02 05:51:42;;;;;;;12.52;7.88;;;7.50;99.90;;;;;;4993860;28;20090;-52
2022/05/02 05:54:26;;;;;;;10.63;7.00;;;7.70;99.90;;;;;;5008622;28;20045;-60
2022/05/02 05:57:07;;;;;;;8.18;6.38;;;7.70;99.90;;;;;;5026534;28;20053;-53
2022/05/02 05:59:56;;;;;;;11.90;6.40;;;7.80;99.90;;;;;;5007746;28;20057;-59
2022/05/02 06:03:12;;;;;;;7.85;5.10;;;7.90;99.90;;;;;;5001097;28;20835;-53
2022/05/02 06:05:40;;;;;;;5.63;5.10;;;8.00;99.90;;;;;;4983387;28;20459;-62
2022/05/02 06:08:21;;;;;;;8.90;5.00;;;8.10;99.90;;;;;;5007743;28;20449;-64
2022/05/02 06:10:49;;;;;;;6.03;4.53;;;8.10;99.90;;;;;;5026103;28;20084;-55
2022/05/02 06:13:16;;;;;;;5.65;3.90;;;8.30;99.90;;;;;;5007801;28;20562;-59
2022/05/02 06:18:34;;;;;;;5.95;4.85;;;8.40;99.90;;;;;;5030235;28;20388;-56
2022/05/02 06:21:05;;;;;;;11.07;5.28;;;8.50;99.90;;;;;;5029757;28;20057;-54
2022/05/02 06:23:44;;;;;;;6.88;4.82;;;8.60;99.90;;;;;;5011788;28;20164;-58
2022/05/02 06:26:11;;;;;;;7.25;5.22;;;8.60;99.90;;;;;;5011754;28;20068;-58
2022/05/02 06:28:42;;;;;;;7.60;5.40;;;8.70;99.90;;;;;;5011545;28;20531;-55
2022/05/02 06:31:29;;;;;;;10.80;5.20;;;8.70;99.90;;;;;;5011320;28;20057;-57
2022/05/02 06:33:57;;;;;;;11.93;5.97;;;8.80;99.90;;;;;;5009594;28;20054;-61
2022/05/02 06:36:42;;;;;;;10.70;5.32;;;8.90;99.90;;;;;;4995771;28;20045;-60
2022/05/02 06:39:24;;;;;;;8.52;5.35;;;9.10;99.90;;;;;;4994359;28;20060;-53
2022/05/02 06:42:09;;;;;;;11.45;4.75;;;9.40;99.90;;;;;;5011112;28;20049;-59
2022/05/02 06:44:55;;;;;;;8.90;5.03;;;9.80;99.90;;;;;;5011947;28;20373;-64
2022/05/02 06:47:42;;;;;;;5.28;4.78;;;10.10;99.90;;;;;;4994553;28;20136;-56
2022/05/02 06:50:10;;;;;;;13.95;5.22;;;10.10;99.90;;;;;;5029531;28;20052;-60
2022/05/02 06:52:42;;;;;;;11.45;5.22;;;10.20;99.90;;;;;;5011184;28;20050;-54
2022/05/02 06:55:24;;;;;;;8.57;5.38;;;10.30;99.90;;;;;;5011615;28;20045;-54
2022/05/02 06:58:27;;;;;;;13.05;4.93;;;10.40;99.90;;;;;;5011617;28;20072;-54
2022/05/02 07:01:02;;;;;;;7.22;3.70;;;10.60;99.90;;;;;;5005148;28;20069;-64
2022/05/02 07:03:39;;;;;;;3.22;2.92;;;10.80;99.90;;;;;;5011207;28;20107;-58
2022/05/02 07:06:29;;;;;;;8.70;3.50;;;11.00;99.90;;;;;;5003007;28;20057;-55
2022/05/02 07:09:04;;;;;;;4.68;2.95;;;11.30;99.90;;;;;;4996097;28;20053;-63
2022/05/02 07:11:56;;;;;;;4.93;2.95;;;11.40;94.80;;;;;;4999151;28;20114;-67
2022/05/02 07:15:01;;;;;;;4.10;2.42;;;11.60;93.70;;;;;;4991487;28;20582;-64
2022/05/02 07:17:43;;;;;;;4.65;2.65;;;11.80;90.70;;;;;;4990155;28;20484;-59
2022/05/02 07:20:19;;;;;;;2.70;2.20;;;11.90;91.40;;;;;;5002544;28;20042;-64
2022/05/02 07:23:16;;;;;;;2.55;2.28;;;12.20;90.80;;;;;;5010616;28;20061;-67
2022/05/02 07:25:50;;;;;;;7.38;2.65;;;12.30;82.20;;;;;;4987067;28;20519;-66
2022/05/02 07:28:25;;;;;;;6.82;2.50;;;12.40;82.40;;;;;;5006371;28;20037;-63
2022/05/02 07:30:56;;;;;;;5.57;1.83;;;12.60;86.50;;;;;;4999805;28;20282;-68
2022/05/02 07:33:25;;;;;;;5.20;2.05;;;12.70;70.40;;;;;;5006222;28;20387;-67
2022/05/02 07:35:52;;;;;;;3.60;1.92;;;12.80;78.80;;;;;;5007917;28;20442;-67
2022/05/02 07:38:19;;;;;;;5.10;2.13;;;12.80;62.80;;;;;;4956604;28;20443;-62
2022/05/02 07:41:22;;;;;;;7.97;1.95;;;12.90;75.80;;;;;;5007788;28;20041;-61
2022/05/02 07:43:35;;;;;;;6.07;1.88;;;13.00;72.60;;;;;;5007574;28;20100;-63
2022/05/02 07:46:06;;;;;;;3.53;2.08;;;13.10;79.60;;;;;;5010342;28;20053;-62
2022/05/02 07:48:52;;;;;;;7.15;2.15;;;13.30;71.20;;;;;;5002061;28;20065;-66
2022/05/02 07:51:19;;;;;;;3.88;1.98;;;13.10;63.30;;;;;;4979835;28;20133;-67
2022/05/02 07:53:46;;;;;;;2.92;2.20;;;13.20;71.70;;;;;;4978894;28;20192;-57
2022/05/02 07:56:13;;;;;;;7.75;2.90;;;13.30;68.80;;;;;;4989955;28;20129;-65
2022/05/02 07:58:44;;;;;;;5.90;2.50;;;13.40;68.50;;;;;;5005628;28;20591;-64
2022/05/02 08:01:10;;;;;;;6.40;2.53;;;13.30;61.60;;;;;;5009863;28;20050;-66
2022/05/02 08:03:35;;;;;;;8.40;2.40;;;13.40;63.90;;;;;;5009729;28;20045;-61
2022/05/02 08:06:25;;;;;;;18.95;2.97;;;13.40;67.10;;;;;;5009905;28;20092;-67
2022/05/02 08:09:07;;;;;;;3.55;2.38;;;13.50;74.80;;;;;;5010598;28;20439;-62
2022/05/02 08:11:33;;;;;;;2.20;2.00;;;13.50;50.60;;;;;;4995831;28;20050;-64
2022/05/02 08:14:06;;;;;;;3.58;2.42;;;13.40;63.70;;;;;;4988941;28;20092;-66
2022/05/02 08:16:34;;;;;;;5.60;2.67;;;13.20;52.40;;;;;;4989797;28;20089;-64
2022/05/02 08:19:33;;;;;;;3.38;2.20;;;13.30;72.00;;;;;;4991988;28;20111;-66
2022/05/02 08:28:08;;;;;;;4.65;2.30;;;13.60;45.20;;;;;;5009098;28;20408;-61
2022/05/02 08:30:44;;;;;;;5.53;2.65;;;13.70;55.60;;;;;;5017346;28;20094;-64
2022/05/02 08:33:16;;;;;;;5.90;2.80;;;13.70;28.90;;;;;;5009960;28;20041;-63
2022/05/02 08:35:43;;;;;;;6.65;2.92;;;13.80;41.20;;;;;;5008676;28;20080;-61
2022/05/02 08:38:35;;;;;;;5.30;3.50;;;14.00;28.30;;;;;;5004913;28;20128;-62
2022/05/02 08:41:28;;;;;;;5.65;2.78;;;14.10;33.50;;;;;;4989752;28;20131;-63
2022/05/02 08:44:26;;;;;;;3.42;2.50;;;14.30;31.40;;;;;;4990700;28;20057;-67
2022/05/02 08:47:29;;;;;;;4.35;2.65;;;14.50;32.90;;;;;;5008299;28;20396;-61
2022/05/02 08:50:16;;;;;;;4.50;3.10;;;14.50;28.90;;;;;;4989293;28;20046;-64
2022/05/02 08:53:00;;;;;;;8.52;2.90;;;14.50;29.10;;;;;;4989096;28;20054;-66
2022/05/02 08:55:35;;;;;;;2.85;2.30;;;14.30;28.50;;;;;;5002442;28;20058;-68
2022/05/02 08:58:49;;;;;;;3.33;2.30;;;14.40;35.60;;;;;;4989271;28;20053;-57
2022/05/02 09:01:43;;;;;;;6.57;3.10;;;14.60;31.60;;;;;;4986569;28;20119;-61
2022/05/02 09:04:58;;;;;;;4.32;2.50;;;14.60;37.10;;;;;;5009104;28;20045;-65
2022/05/02 09:07:52;;;;;;;9.18;2.92;;;14.80;33.30;;;;;;4949752;28;20049;-61
2022/05/02 09:10:59;;;;;;;4.90;2.80;;;14.50;26.70;;;;;;5008626;28;20595;-67
2022/05/02 09:14:12;;;;;;;5.72;2.80;;;14.40;32.20;;;;;;5007965;28;20495;-67
2022/05/02 09:17:06;;;;;;;4.00;3.20;;;14.40;30.10;;;;;;5003886;28;20399;-67
2022/05/02 09:19:55;;;;;;;4.18;3.00;;;14.30;35.00;;;;;;5008799;28;20057;-63
2022/05/02 09:22:58;;;;;;;5.95;3.55;;;14.40;34.80;;;;;;5007950;28;20096;-65
2022/05/02 09:25:51;;;;;;;6.35;3.28;;;14.50;31.70;;;;;;5024559;28;20096;-60
2022/05/02 09:28:25;;;;;;;4.93;2.90;;;14.50;32.10;;;;;;5008694;28;20049;-59
2022/05/02 09:31:06;;;;;;;4.38;3.13;;;14.50;31.40;;;;;;5025877;28;20052;-67
2022/05/02 09:34:13;;;;;;;4.05;2.90;;;14.40;31.70;;;;;;5008565;28;20049;-63
2022/05/02 09:37:04;;;;;;;5.90;2.85;;;14.20;34.80;;;;;;5021649;28;20049;-59
2022/05/02 09:40:01;;;;;;;4.63;3.00;;;14.30;41.90;;;;;;5008235;28;20753;-67
2022/05/02 09:42:50;;;;;;;5.35;3.60;;;14.50;33.30;;;;;;4979460;28;20060;-58
2022/05/02 09:51:48;;;;;;;6.38;3.42;;;14.50;32.50;;;;;;5007855;28;20563;-62
2022/05/02 09:57:20;;;;;;;6.13;3.30;;;14.20;43.00;;;;;;5002735;28;20520;-63
2022/05/02 10:02:41;;;;;;;;;;;14.20;40.20;;;;;;5007506;28;20422;-62
2022/05/02 10:05:08;;;;;;;8.98;3.20;;;14.20;33.80;;;;;;4987447;28;19932;-69
2022/05/02 10:07:49;;;;;;;4.60;3.50;;;14.10;41.00;;;;;;4988661;28;20500;-58
2022/05/02 10:10:27;;;;;;;4.65;4.00;;;14.10;37.10;;;;;;4987976;28;20053;-60
2022/05/02 10:13:08;;;;;;;4.10;3.75;;;14.10;32.10;;;;;;4988670;28;20049;-63
2022/05/02 10:15:52;;;;;;;5.65;3.55;;;14.20;35.40;;;;;;4997173;28;20162;-68
2022/05/02 10:18:17;;;;;;;5.28;3.90;;;14.30;42.30;;;;;;5007972;28;20057;-68
2022/05/02 10:21:02;;;;;;;6.35;4.18;;;14.40;38.60;;;;;;5008093;28;20488;-59
2022/05/02 10:24:04;;;;;;;11.23;3.78;;;14.30;40.50;;;;;;5007742;28;20091;-64
2022/05/02 10:26:40;;;;;;;5.50;3.38;;;14.40;41.00;;;;;;5002668;28;20042;-60
2022/05/02 10:29:24;;;;;;;6.80;4.25;;;14.30;37.90;;;;;;4987094;28;20061;-69
2022/05/02 10:32:01;;;;;;;4.20;2.97;;;14.40;46.40;;;;;;4977095;28;20337;-69
2022/05/02 10:34:29;;;;;;;5.65;3.60;;;14.50;44.70;;;;;;4982661;28;20050;-66
2022/05/02 10:37:00;;;;;;;6.43;2.92;;;14.40;43.80;;;;;;4984329;28;20050;-60
2022/05/02 10:39:47;;;;;;;5.30;3.25;;;14.60;44.00;;;;;;4969139;28;20088;-65
2022/05/02 10:42:17;;;;;;;7.28;3.47;;;14.60;38.90;;;;;;4978055;28;20507;-63
2022/05/02 10:44:57;;;;;;;5.57;3.63;;;14.60;33.30;;;;;;4987455;28;20620;-62
2022/05/02 10:47:25;;;;;;;;;;;14.50;33.30;;;;;;5006594;28;20050;-63
2022/05/02 10:50:20;;;;;;;4.30;3.60;;;14.40;45.70;;;;;;4987159;28;20299;-69
2022/05/02 10:53:07;;;;;;;9.80;2.83;;;14.40;40.00;;;;;;4987476;28;20097;-66
2022/05/02 10:55:37;;;;;;;5.63;3.20;;;14.70;51.30;;;;;;4988461;28;20084;-63
2022/05/02 10:58:10;;;;;;;5.75;3.10;;;14.70;35.00;;;;;;4985943;28;20045;-68
2022/05/02 11:01:02;;;;;;;4.40;3.00;;;14.50;35.10;;;;;;4985715;28;20077;-68
2022/05/02 11:03:50;;;;;;;3.33;3.03;;;14.50;46.90;;;;;;4990050;28;20057;-62
2022/05/02 11:06:21;;;;;;;4.72;3.15;;;14.50;38.00;;;;;;4977161;28;20034;-57
2022/05/02 11:08:54;;;;;;;5.95;3.30;;;14.40;36.90;;;;;;4975853;28;20053;-65
2022/05/02 11:11:32;;;;;;;7.47;3.05;;;14.30;44.00;;;;;;4989480;28;20050;-64
2022/05/02 11:14:07;;;;;;;7.22;3.70;;;14.30;40.70;;;;;;4990997;28;20065;-64
2022/05/02 11:16:51;;;;;;;3.97;3.30;;;14.20;39.10;;;;;;4990587;28;20046;-66
2022/05/02 11:22:37;;;;;;;5.65;3.80;;;14.20;36.50;;;;;;4972208;28;20340;-64
2022/05/02 11:25:19;;;;;;;4.80;3.50;;;14.00;35.90;;;;;;4995214;28;20904;-68
2022/05/02 11:28:04;;;;;;;6.28;4.75;;;14.00;41.70;;;;;;4988256;28;20096;-67
2022/05/02 11:30:38;;;;;;;7.85;4.18;;;14.30;46.90;;;;;;4982969;28;20046;-64
2022/05/02 11:33:36;;;;;;;7.57;3.83;;;14.50;42.70;;;;;;5005568;28;20135;-63
2022/05/02 11:36:06;;;;;;;4.93;3.25;;;14.70;48.90;;;;;;4918834;28;20062;-65
2022/05/02 11:39:17;;;;;;;6.95;3.90;;;14.50;42.70;;;;;;4975652;28;20423;-67
2022/05/02 11:41:47;;;;;;;5.07;3.78;;;14.50;48.60;;;;;;4987091;28;20064;-64
2022/05/02 11:44:14;;;;;;;5.05;3.72;;;14.50;44.20;;;;;;4990647;28;20069;-60
2022/05/02 11:47:02;;;;;;;4.68;3.65;;;14.50;35.90;;;;;;4990877;28;20569;-59
2022/05/02 11:49:58;;;;;;;7.13;3.92;;;14.40;48.70;;;;;;4989916;28;20134;-64
2022/05/02 11:52:38;;;;;;;7.22;4.32;;;14.40;34.00;;;;;;4985211;28;20060;-63
2022/05/02 11:55:09;;;;;;;12.13;3.47;;;14.50;39.40;;;;;;4977906;28;20034;-62
2022/05/02 11:58:07;;;;;;;6.47;3.75;;;14.60;40.00;;;;;;4972938;28;20128;-65
2022/05/02 12:00:36;;;;;;;3.60;3.17;;;14.70;38.80;;;;;;4976531;28;20061;-64
2022/05/02 12:03:07;;;;;;;4.38;3.78;;;14.50;41.70;;;;;;4969691;28;20161;-66
2022/05/02 12:05:40;;;;;;;6.90;4.18;;;14.50;37.60;;;;;;4971657;28;20073;-66
2022/05/02 12:08:09;;;;;;;5.60;3.65;;;14.50;38.30;;;;;;4970202;28;20058;-66
2022/05/02 12:10:41;;;;;;;4.68;3.70;;;14.50;44.10;;;;;;4986574;28;20038;-67
2022/05/02 12:13:35;;;;;;;4.18;3.60;;;14.70;37.30;;;;;;4983838;28;20057;-63
2022/05/02 12:16:09;;;;;;;8.07;3.97;;;14.70;41.30;;;;;;4988940;28;20061;-69
2022/05/02 12:18:40;;;;;;;8.50;4.07;;;14.30;39.80;;;;;;4990309;28;20136;-65
2022/05/02 12:21:08;;;;;;;3.97;3.03;;;14.20;36.70;;;;;;4989611;28;20129;-66
2022/05/02 12:23:37;;;;;;;5.70;3.38;;;14.40;51.30;;;;;;4954435;28;20050;-69
2022/05/02 12:26:12;;;;;;;4.72;3.10;;;14.60;51.30;;;;;;4970456;28;20064;-68
2022/05/02 12:28:43;;;;;;;5.45;3.30;;;14.50;50.40;;;;;;4969929;28;20120;-66
2022/05/02 12:31:14;;;;;;;7.32;3.67;;;14.40;42.70;;;;;;4973622;28;20052;-60
2022/05/02 12:33:43;;;;;;;4.68;2.95;;;14.10;33.10;;;;;;4978290;28;20076;-64
2022/05/02 12:36:17;;;;;;;4.43;3.38;;;14.20;43.50;;;;;;4969291;28;20125;-69
2022/05/02 12:39:12;;;;;;;5.03;3.08;;;14.40;42.30;;;;;;4970445;28;20133;-60
2022/05/02 12:41:53;;;;;;;5.32;3.35;;;14.50;42.00;;;;;;4968243;28;20074;-62
2022/05/02 12:44:25;;;;;;;4.63;2.63;;;14.50;43.50;;;;;;4984009;28;20133;-67
2022/05/02 12:46:55;;;;;;;2.83;2.50;;;14.50;36.20;;;;;;4989444;28;20054;-62
2022/05/02 12:49:22;;;;;;;4.97;2.72;;;14.30;41.10;;;;;;4988736;28;20049;-63
2022/05/02 12:51:56;;;;;;;3.47;3.00;;;14.30;40.40;;;;;;4989295;28;20041;-65
2022/05/02 12:54:25;;;;;;;6.03;2.58;;;14.40;39.10;;;;;;4985432;28;20058;-65
2022/05/02 13:02:42;;;;;;;8.68;3.88;;;14.90;31.30;;;;;;4977686;28;20050;-62
2022/05/02 13:05:21;;;;;;;6.18;3.00;;;14.90;34.10;;;;;;4981781;28;20056;-62
2022/05/02 13:07:50;;;;;;;6.18;3.05;;;14.80;38.00;;;;;;4972734;28;20543;-67
2022/05/02 13:10:20;;;;;;;3.13;2.57;;;14.70;34.70;;;;;;4987218;28;20042;-65
2022/05/02 13:13:05;;;;;;;3.53;3.22;;;14.80;40.00;;;;;;5002069;28;20582;-61
2022/05/02 13:15:49;;;;;;;3.85;3.08;;;14.70;31.50;;;;;;4979700;28;20064;-67
2022/05/02 13:18:20;;;;;;;6.85;3.20;;;14.60;29.60;;;;;;4988941;28;20121;-59
2022/05/02 13:21:12;;;;;;;6.90;2.80;;;14.80;41.00;;;;;;4972807;28;20054;-59
2022/05/02 13:23:45;;;;;;;7.40;3.30;;;14.80;37.00;;;;;;4981077;28;20100;-61
2022/05/02 13:26:29;;;;;;;5.68;2.63;;;14.60;33.80;;;;;;4988059;28;20180;-67
2022/05/02 13:29:09;;;;;;;4.95;2.20;;;14.40;37.40;;;;;;4968386;28;20053;-69
2022/05/02 13:31:47;;;;;;;4.93;3.25;;;14.20;44.70;;;;;;4986421;28;20189;-67
2022/05/02 13:34:26;;;;;;;5.35;2.67;;;14.10;46.50;;;;;;4986204;28;20481;-61
2022/05/02 13:37:10;;;;;;;4.60;2.25;;;14.00;47.40;;;;;;4986051;28;20489;-64
2022/05/02 13:39:55;;;;;;;2.50;2.30;;;14.00;57.70;;;;;;4980561;28;20651;-62
2022/05/02 13:42:40;;;;;;;2.15;1.90;;;14.00;40.80;;;;;;4985753;28;20057;-60
2022/05/02 13:45:16;;;;;;;6.32;1.77;;;13.80;43.00;;;;;;4980403;28;20138;-61
2022/05/02 13:47:48;;;;;;;3.33;1.95;;;14.00;48.90;;;;;;4972786;28;20593;-62
2022/05/02 13:50:18;;;;;;;4.95;1.90;;;14.20;58.40;;;;;;4983510;28;20120;-58
2022/05/02 13:53:10;;;;;;;8.90;2.05;;;14.20;42.20;;;;;;4988119;28;20264;-62
2022/05/02 13:55:39;;;;;;;4.85;2.05;;;14.10;38.20;;;;;;4987938;28;20502;-67
2022/05/02 13:58:23;;;;;;;2.63;1.90;;;14.10;44.00;;;;;;4976740;28;20046;-66
2022/05/02 14:04:01;;;;;;;5.63;1.80;;;13.90;46.30;;;;;;4984366;28;20066;-66
2022/05/02 14:06:30;;;;;;;2.60;1.63;;;14.10;59.20;;;;;;4986704;28;20065;-60
2022/05/02 14:08:59;;;;;;;6.07;1.77;;;14.30;48.40;;;;;;4972430;28;20069;-63
2022/05/02 14:11:28;;;;;;;7.20;1.90;;;14.10;45.90;;;;;;4968102;28;20047;-67
2022/05/02 14:14:13;;;;;;;1.67;1.50;;;14.10;49.40;;;;;;4969084;28;20050;-67